Huvudsida
METAR-TAF:

METAR-TAF

Flygplatser :

Halmstad City Airport

Halmstad, Sverige

latitud: 56-41N, longitud: 012-50E, höjd: 30 m

Aktuellt väderrapport

Denna rapport gjordes för 1 timme och 5 minuter sedan, klockan 13:50 UTC
Vind 17 kt från väst
Temperatur 19°C
Fuktighet 73%
Tryck 1012 hPa
Sikt 10 km eller mer
Få moln på en höjd av 2300 ft
Spridda moln på en höjd av 3200 ft

METAR: ESMT 201350Z 28017KT 9999 FEW023 SCT032 19/14 Q1012

Tid: 16:55 (14:55 UTC)

Väderprognos

Denna rapport gjordes för 3 timmar och 58 minuter sedan, klockan 10:57 UTC
Prognos gäller från 20 kl. 12 UTC till 20 kl. 21 UTC
Vind 15 kt från väst/nordväst
Sikt 10 km eller mer
Spridda moln på en höjd av 3000 ft
Temporärt
från 20 kl. 12 UTC till 20 kl. 15 UTC
Vind 15 kt från väst/nordväst i byarna ända upp till 25 kt
Blir
från 20 kl. 17 UTC till 20 kl. 20 UTC
Vind 8 kt från väst/nordväst

TAF: ESMT 201057Z 2012/2021 30015KT 9999 SCT030 TEMPO 2012/2015 30015G25KT BECMG 2017/2020 29008KT

Aktuella väderrapporter och prognoser från 4000 flygplatser (METAR- och TAF-rapporter).

De tillgängliga stationerna syns som gula och röda prickar på kartan.

För musen över prickarna för att se namnen på stationerna.

Klicka sedan för att få väderrapporter och prognoser.

För att ändra kartan: Klicka på de gröna knapparna med ett svart kors på för att zooma in; den gröna knappen med ett streck på för att zooma ut; eller på de gröna pilarna för angränsande kartor.


METAR-TAF: